Time;durP1;ratioP1;P1;durP2;ratioP2;P2;SDS_P1;SDS_P2;PMS_P1;PMS_P2;Temp;Humidity;BMP_temperature;BMP_pressure;BME280_temperature;BME280_humidity;BME280_pressure;Samples;Min_cycle;Max_cycle;Signal;HPM_P1;HPM_P2
2022/01/21 00:01:08;;;;;;;3.28;2.95;;;;;;;7.63;51.02;101342.38;5088787;28;20982;-76
2022/01/21 00:03:36;;;;;;;2.85;2.55;;;;;;;7.75;50.99;101343.44;5089671;28;20401;-76
2022/01/21 00:06:06;;;;;;;3.40;2.90;;;;;;;7.86;50.52;101353.31;5090244;28;20483;-76
2022/01/21 00:08:33;;;;;;;3.58;2.80;;;;;;;7.77;50.72;101345.03;5092534;28;20448;-76
2022/01/21 00:11:00;;;;;;;2.90;2.60;;;;;;;7.68;51.03;101356.13;5091867;28;20941;-76
2022/01/21 00:13:34;;;;;;;3.40;2.53;;;;;;;7.71;50.89;101353.31;5090056;28;20413;-75
2022/01/21 00:16:02;;;;;;;3.72;2.60;;;;;;;7.70;50.93;101359.50;5090099;28;20508;-76
2022/01/21 00:18:30;;;;;;;3.67;2.73;;;;;;;7.60;51.39;101358.38;5090171;28;20401;-76
2022/01/21 00:31:55;;;;;;;3.65;3.15;;;;;;;7.88;50.55;101373.38;5089750;28;20415;-76
2022/01/21 00:34:24;;;;;;;3.97;3.53;;;;;;;7.90;50.59;101389.13;5089184;28;20497;-76
2022/01/21 00:36:51;;;;;;;3.95;3.55;;;;;;;7.76;50.89;101396.06;5089381;28;20491;-76
2022/01/21 00:39:23;;;;;;;3.78;3.30;;;;;;;7.66;51.18;101405.47;5089355;28;20413;-76
2022/01/21 00:41:58;;;;;;;3.20;2.90;;;;;;;7.59;51.53;101399.72;5089677;28;20415;-76
2022/01/21 00:44:25;;;;;;;3.33;2.90;;;;;;;7.51;52.10;101406.41;5089307;28;20412;-76
2022/01/21 00:46:53;;;;;;;3.10;2.80;;;;;;;7.38;52.35;101409.75;5089576;28;20461;-76
2022/01/21 00:49:19;;;;;;;3.80;3.17;;;;;;;7.50;52.46;101421.38;5089599;28;20488;-76
2022/01/21 00:51:48;;;;;;;3.40;3.10;;;;;;;7.58;52.24;101426.19;5089259;28;20412;-76
2022/01/21 00:54:15;;;;;;;3.35;3.03;;;;;;;7.40;52.54;101421.06;5088975;28;20413;-76
2022/01/21 00:56:42;;;;;;;3.43;3.13;;;;;;;7.47;52.61;101420.69;5089598;28;20517;-76
2022/01/21 00:59:11;;;;;;;3.30;3.00;;;;;;;7.47;52.58;101428.59;5089084;28;20496;-76
2022/01/21 01:01:39;;;;;;;3.43;3.10;;;;;;;7.62;51.91;101425.06;5089428;28;20401;-76
2022/01/21 01:04:07;;;;;;;3.83;3.10;;;;;;;7.45;51.99;101420.78;5089172;28;20406;-76
2022/01/21 01:06:34;;;;;;;3.00;2.70;;;;;;;7.40;51.78;101414.91;5089378;28;20425;-76
2022/01/21 01:09:02;;;;;;;3.22;2.92;;;;;;;7.36;51.50;101409.00;5089463;28;20409;-76
2022/01/21 01:11:44;;;;;;;3.70;2.90;;;;;;;7.41;51.23;101414.84;5089350;28;20416;-76
2022/01/21 01:20:00;;;;;;;2.95;2.38;;;;;;;7.37;50.24;101405.41;5092977;28;20914;-76
2022/01/21 01:22:35;;;;;;;2.60;2.33;;;;;;;7.34;50.28;101405.59;5091781;28;20491;-76
2022/01/21 01:27:49;;;;;;;2.40;2.20;;;;;;;7.48;49.76;101406.56;5092795;28;20432;-76
2022/01/21 01:30:18;;;;;;;2.53;2.30;;;;;;;7.28;50.00;101400.69;5093427;28;20492;-76
2022/01/21 01:32:47;;;;;;;2.93;2.63;;;;;;;7.22;50.27;101406.31;5092571;28;20501;-75
2022/01/21 01:35:17;;;;;;;2.93;2.50;;;;;;;7.16;50.41;101394.34;5092563;28;20405;-75
2022/01/21 01:38:05;;;;;;;2.50;2.30;;;;;;;7.42;49.91;101403.38;5091567;28;20426;-76
2022/01/21 01:40:39;;;;;;;2.40;2.20;;;;;;;7.08;50.39;101403.63;5092765;28;20500;-75
2022/01/21 01:51:29;;;;;;;2.00;1.80;;;;;;;6.99;49.88;101419.00;5092323;28;20420;-76
2022/01/21 01:54:00;;;;;;;1.63;1.53;;;;;;;6.93;50.13;101419.34;5090752;28;20496;-75
2022/01/21 01:56:31;;;;;;;1.73;1.63;;;;;;;6.94;50.10;101425.47;5092529;28;20409;-75
2022/01/21 01:58:58;;;;;;;1.98;1.70;;;;;;;7.02;49.82;101428.53;5092377;28;20497;-75
2022/01/21 02:01:26;;;;;;;2.00;1.80;;;;;;;6.99;49.73;101419.00;5092138;28;20911;-76
2022/01/21 02:03:53;;;;;;;2.78;2.28;;;;;;;7.02;49.85;101432.00;5091215;28;20488;-76
2022/01/21 02:06:21;;;;;;;2.55;2.28;;;;;;;7.10;49.84;101422.84;5092276;28;20508;-76
2022/01/21 02:08:49;;;;;;;2.50;2.30;;;;;;;7.21;49.50;101426.53;5091906;28;20424;-76
2022/01/21 02:11:16;;;;;;;2.33;2.00;;;;;;;6.97;49.74;101417.38;5091823;28;20496;-77
2022/01/21 02:13:48;;;;;;;2.15;1.90;;;;;;;7.12;49.65;101410.41;5091798;28;20910;-77
2022/01/21 02:16:31;;;;;;;2.20;2.00;;;;;;;6.95;49.49;101414.81;5092162;28;20492;-76
2022/01/21 02:21:47;;;;;;;2.03;1.80;;;;;;;6.72;49.30;101408.22;5091828;28;20767;-75
2022/01/21 02:24:19;;;;;;;2.15;1.55;;;;;;;6.77;48.96;101410.59;5091638;28;20410;-76
2022/01/21 02:26:48;;;;;;;2.03;1.40;;;;;;;6.54;48.92;101412.72;5091526;28;20432;-76
2022/01/21 02:29:26;;;;;;;1.90;1.60;;;;;;;6.60;48.77;101417.66;5091544;28;20414;-76
2022/01/21 02:31:54;;;;;;;2.40;2.20;;;;;;;6.69;48.40;101428.59;5091502;28;20416;-76
2022/01/21 02:34:22;;;;;;;2.60;2.40;;;;;;;6.78;47.71;101426.31;5091999;28;20417;-76
2022/01/21 02:36:51;;;;;;;2.13;1.47;;;;;;;6.56;47.43;101416.13;5091826;28;20523;-76
2022/01/21 02:39:19;;;;;;;1.95;1.60;;;;;;;6.52;47.02;101413.75;5091631;28;20418;-76
2022/01/21 02:41:46;;;;;;;1.77;1.40;;;;;;;6.41;46.26;101416.97;5091319;28;20413;-76
2022/01/21 02:44:17;;;;;;;1.23;1.10;;;;;;;6.48;45.98;101401.69;5091739;28;20413;-76
2022/01/21 02:46:45;;;;;;;1.98;1.50;;;;;;;6.45;45.50;101399.22;5090214;28;20433;-76
2022/01/21 02:49:13;;;;;;;1.40;1.30;;;;;;;6.41;45.52;101406.44;5091435;28;20436;-76
2022/01/21 02:51:41;;;;;;;2.20;1.65;;;;;;;6.36;45.24;101408.47;5091543;28;20412;-76
2022/01/21 02:54:09;;;;;;;2.63;1.95;;;;;;;6.49;44.87;101398.97;5090763;28;20907;-75
2022/01/21 02:56:38;;;;;;;1.83;1.60;;;;;;;6.55;44.89;101396.00;5091415;28;20500;-76
2022/01/21 02:59:06;;;;;;;2.70;1.58;;;;;;;6.53;44.75;101403.13;5073259;28;20488;-76
2022/01/21 03:01:35;;;;;;;2.85;2.08;;;;;;;6.56;44.43;101397.69;5089790;28;20424;-76
2022/01/21 03:04:03;;;;;;;4.00;2.17;;;;;;;6.58;44.62;101398.47;5090750;28;20508;-76
2022/01/21 03:06:31;;;;;;;3.03;1.88;;;;;;;6.70;43.90;101394.31;5090878;28;20429;-76
2022/01/21 03:08:59;;;;;;;3.10;2.30;;;;;;;6.65;43.92;101401.63;5089432;28;20413;-75
2022/01/21 03:11:29;;;;;;;3.65;2.30;;;;;;;6.68;44.16;101405.84;5090449;28;20410;-75
2022/01/21 03:13:57;;;;;;;2.83;1.95;;;;;;;6.69;44.04;101410.19;5091034;28;20432;-75
2022/01/21 03:16:27;;;;;;;3.30;1.80;;;;;;;6.97;44.02;101423.50;5089984;28;20611;-75
2022/01/21 03:18:54;;;;;;;2.50;2.00;;;;;;;7.07;43.87;101438.78;5091563;28;20416;-76
2022/01/21 03:21:21;;;;;;;2.42;2.22;;;;;;;7.02;44.24;101432.00;5091165;28;20486;-76
2022/01/21 03:23:50;;;;;;;2.40;1.80;;;;;;;6.90;44.09;101443.22;5090813;28;20448;-76
2022/01/21 03:26:19;;;;;;;2.00;1.40;;;;;;;6.78;43.86;101441.28;5090691;28;20409;-76
2022/01/21 03:28:50;;;;;;;1.77;1.60;;;;;;;6.57;44.10;101432.78;5090318;28;20444;-76
2022/01/21 03:31:17;;;;;;;1.92;1.60;;;;;;;6.51;43.72;101439.22;5090236;28;20484;-76
2022/01/21 03:33:45;;;;;;;2.58;1.70;;;;;;;6.66;43.67;101444.59;5090515;28;20498;-76
2022/01/21 03:36:12;;;;;;;15.98;13.77;;;;;;;6.68;43.39;101448.84;5089209;28;20776;-76
2022/01/21 03:38:40;;;;;;;12.82;8.35;;;;;;;6.56;43.87;101452.13;5089789;28;20406;-75
2022/01/21 03:41:08;;;;;;;4.30;3.90;;;;;;;6.51;43.70;101451.50;5089193;28;20405;-77
2022/01/21 03:43:36;;;;;;;22.92;20.98;;;;;;;6.58;43.45;101459.00;5089217;28;20412;-76
2022/01/21 03:46:05;;;;;;;4.90;4.40;;;;;;;6.66;43.20;101463.03;5089711;28;20417;-76
2022/01/21 03:48:33;;;;;;;4.97;4.57;;;;;;;6.44;43.02;101473.84;5089765;28;20508;-76
2022/01/21 03:51:00;;;;;;;5.15;4.75;;;;;;;6.50;43.15;101453.31;5088782;28;20788;-76
2022/01/21 03:53:28;;;;;;;7.38;6.78;;;;;;;6.66;43.25;101455.13;5090001;28;20492;-75
2022/01/21 03:55:54;;;;;;;3.67;3.38;;;;;;;6.64;42.91;101464.88;5089784;28;20415;-76
2022/01/21 03:58:22;;;;;;;3.90;3.50;;;;;;;6.72;42.57;101471.44;5090128;28;20413;-76
2022/01/21 04:00:51;;;;;;;3.05;2.70;;;;;;;6.65;42.89;101477.09;5089558;28;20413;-76
2022/01/21 04:03:21;;;;;;;3.03;2.28;;;;;;;6.34;42.99;101484.84;5089814;28;20917;-76
2022/01/21 04:05:48;;;;;;;3.33;2.80;;;;;;;6.32;43.01;101489.34;5089545;28;20408;-76
2022/01/21 04:08:16;;;;;;;4.00;3.60;;;;;;;6.38;43.07;101489.03;5089424;28;20520;-76
2022/01/21 04:10:44;;;;;;;4.57;4.03;;;;;;;6.29;43.33;101492.16;5087514;28;20496;-76
2022/01/21 04:13:15;;;;;;;4.95;4.40;;;;;;;6.19;43.63;101491.78;5088127;28;20413;-76
2022/01/21 04:15:45;;;;;;;5.65;4.72;;;;;;;5.90;44.13;101497.66;5088413;28;20409;-76
2022/01/21 04:18:14;;;;;;;5.13;4.53;;;;;;;5.85;44.45;101500.50;5087783;28;20416;-76
2022/01/21 04:20:42;;;;;;;4.67;3.60;;;;;;;5.93;44.41;101498.34;5088038;28;20944;-76
2022/01/21 04:23:11;;;;;;;4.77;3.83;;;;;;;5.93;44.44;101500.97;5089492;28;20836;-76
2022/01/21 04:25:38;;;;;;;5.30;4.47;;;;;;;5.78;44.77;101507.88;5089488;28;20417;-75
2022/01/21 04:28:06;;;;;;;3.97;3.67;;;;;;;5.67;45.16;101504.06;5089638;28;20429;-76
2022/01/21 04:30:33;;;;;;;5.47;4.33;;;;;;;5.89;44.95;101520.47;5089705;28;20409;-76
2022/01/21 04:33:00;;;;;;;8.52;6.75;;;;;;;5.73;45.39;101517.75;5089086;28;20458;-76
2022/01/21 04:35:27;;;;;;;4.95;4.10;;;;;;;5.77;45.25;101513.19;5088201;28;20927;-75
2022/01/21 04:37:59;;;;;;;5.90;4.63;;;;;;;5.78;45.31;101523.66;5089593;28;20484;-75
2022/01/21 04:40:29;;;;;;;6.27;4.30;;;;;;;5.67;45.54;101520.69;5089286;28;20439;-75
2022/01/21 04:48:26;;;;;;;5.80;5.20;;;;;;;5.85;45.45;101526.81;5088902;28;20950;-76
2022/01/21 04:50:57;;;;;;;5.88;4.57;;;;;;;5.54;46.06;101533.59;5093221;28;20949;-76
2022/01/21 04:53:28;;;;;;;7.22;5.97;;;;;;;5.69;46.05;101545.13;5093675;28;20445;-76
2022/01/21 04:55:55;;;;;;;7.60;5.80;;;;;;;5.80;45.74;101545.47;5093762;28;20401;-76
2022/01/21 04:58:22;;;;;;;5.43;4.77;;;;;;;5.90;45.54;101539.72;5093179;28;20461;-76
2022/01/21 05:00:49;;;;;;;6.50;5.13;;;;;;;5.88;46.00;101554.72;5091726;28;20990;-76
2022/01/21 05:03:17;;;;;;;7.78;5.72;;;;;;;6.14;46.09;101548.19;5091513;28;20447;-76
2022/01/21 05:05:44;;;;;;;6.35;4.90;;;;;;;6.08;45.52;101559.88;5093349;28;20413;-75
2022/01/21 05:08:22;;;;;;;7.73;6.27;;;;;;;5.94;45.49;101554.41;5093285;28;20453;-76
2022/01/21 05:10:51;;;;;;;5.75;5.13;;;;;;;5.93;45.52;101555.38;5092779;28;20412;-76
2022/01/21 05:13:22;;;;;;;6.63;4.82;;;;;;;5.88;44.97;101567.88;5092810;28;20434;-76
2022/01/21 05:16:02;;;;;;;6.43;4.80;;;;;;;5.91;44.78;101579.09;5093273;28;20452;-76
2022/01/21 05:18:30;;;;;;;7.55;6.78;;;;;;;5.88;44.69;101584.53;5092818;28;20416;-76
2022/01/21 05:20:57;;;;;;;10.15;7.40;;;;;;;6.01;44.56;101590.06;5092651;28;20437;-76
2022/01/21 05:23:24;;;;;;;10.65;7.65;;;;;;;5.84;44.28;101585.59;5091373;28;20496;-76
2022/01/21 05:25:53;;;;;;;9.83;6.03;;;;;;;5.89;43.95;101582.75;5092640;28;20503;-76
2022/01/21 05:28:21;;;;;;;10.52;7.40;;;;;;;5.92;43.84;101583.44;5092163;28;20527;-75
2022/01/21 05:30:48;;;;;;;10.93;7.17;;;;;;;5.96;43.34;101584.16;5092555;28;21005;-76
2022/01/21 05:33:15;;;;;;;12.57;6.97;;;;;;;5.73;43.27;101567.72;5091321;28;20409;-77
2022/01/21 05:35:42;;;;;;;12.97;7.37;;;;;;;5.77;42.99;101582.41;5092322;28;20409;-77
2022/01/21 05:38:09;;;;;;;11.32;6.78;;;;;;;5.77;42.88;101586.81;5092536;28;20409;-77
2022/01/21 05:40:37;;;;;;;10.63;6.32;;;;;;;5.67;42.96;101594.28;5092797;28;20405;-76
2022/01/21 05:43:06;;;;;;;13.13;9.32;;;;;;;5.75;42.83;101600.03;5092334;28;20910;-76
2022/01/21 05:48:17;;;;;;;8.32;5.43;;;;;;;5.55;43.21;101611.50;5092274;28;20811;-76
2022/01/21 05:50:45;;;;;;;7.35;6.22;;;;;;;5.60;43.12;101616.56;5092251;28;20496;-77
2022/01/21 05:53:12;;;;;;;7.47;6.05;;;;;;;5.60;43.12;101619.19;5092148;28;20413;-77
2022/01/21 05:55:41;;;;;;;8.43;5.05;;;;;;;5.48;43.23;101628.50;5092523;28;20492;-77
2022/01/21 05:58:12;;;;;;;8.95;5.72;;;;;;;5.46;43.35;101629.50;5092310;28;20420;-77
2022/01/21 06:00:39;;;;;;;7.18;4.95;;;;;;;5.68;42.61;101634.56;5091214;28;20522;-77
2022/01/21 06:03:06;;;;;;;10.15;6.72;;;;;;;5.62;42.77;101630.47;5092474;28;20427;-77
2022/01/21 06:05:34;;;;;;;10.85;7.32;;;;;;;5.72;42.57;101630.91;5091358;28;20862;-76
2022/01/21 06:08:05;;;;;;;14.52;10.05;;;;;;;5.81;42.59;101635.72;5091774;28;20436;-77
2022/01/21 06:10:32;;;;;;;23.25;15.05;;;;;;;5.80;42.53;101640.13;5091537;28;20961;-77
2022/01/21 06:12:59;;;;;;;45.05;23.80;;;;;;;5.79;42.89;101635.78;5091656;28;20835;-76
2022/01/21 06:15:28;;;;;;;57.75;29.80;;;;;;;5.86;42.72;101643.38;5091890;28;20978;-75
2022/01/21 06:17:56;;;;;;;20.17;15.05;;;;;;;5.97;42.58;101646.38;5091186;28;20413;-77
2022/01/21 06:20:23;;;;;;;16.38;11.05;;;;;;;5.91;42.72;101654.53;5090872;28;20412;-77
2022/01/21 06:22:51;;;;;;;27.02;20.67;;;;;;;5.69;43.21;101654.69;5091645;28;20415;-77
2022/01/21 06:25:18;;;;;;;31.25;16.92;;;;;;;5.76;43.06;101654.34;5091901;28;20459;-77
2022/01/21 06:27:45;;;;;;;50.28;35.15;;;;;;;5.80;43.37;101661.16;5091794;28;20429;-77
2022/01/21 06:30:13;;;;;;;36.83;26.55;;;;;;;5.65;43.71;101667.13;5090690;28;20421;-77
2022/01/21 06:32:42;;;;;;;33.20;23.27;;;;;;;5.66;43.70;101663.59;5091714;28;20590;-76
2022/01/21 06:35:10;;;;;;;38.35;26.75;;;;;;;5.76;43.43;101664.84;5090421;28;20496;-76
2022/01/21 06:37:37;;;;;;;34.50;24.90;;;;;;;5.92;42.84;101667.63;5091449;28;20524;-76
2022/01/21 06:40:05;;;;;;;33.80;23.95;;;;;;;5.67;43.41;101662.66;5091733;28;20445;-76
2022/01/21 06:42:32;;;;;;;30.58;22.08;;;;;;;5.78;42.89;101660.38;5091122;28;20413;-75
2022/01/21 06:45:00;;;;;;;24.67;19.07;;;;;;;5.91;42.89;101670.31;5091565;28;20496;-75
2022/01/21 06:47:27;;;;;;;26.00;20.83;;;;;;;5.74;43.12;101676.38;5091690;28;20441;-75
2022/01/21 06:49:58;;;;;;;19.20;15.80;;;;;;;5.73;43.06;101669.41;5091090;28;20492;-76
2022/01/21 06:52:26;;;;;;;34.35;29.08;;;;;;;5.82;43.03;101676.88;5090859;28;20409;-75
2022/01/21 06:54:53;;;;;;;36.03;27.98;;;;;;;5.74;43.04;101676.38;5091375;28;20405;-75
2022/01/21 06:57:20;;;;;;;36.67;26.92;;;;;;;6.07;42.35;101679.19;5091365;28;20492;-76
2022/01/21 06:59:48;;;;;;;27.92;19.48;;;;;;;5.81;42.32;101673.38;5089946;28;20405;-76
2022/01/21 07:02:14;;;;;;;27.58;19.17;;;;;;;5.88;42.51;101673.06;5090819;28;20474;-76
2022/01/21 07:04:42;;;;;;;23.88;18.85;;;;;;;6.11;41.97;101675.50;5090509;28;20811;-76
2022/01/21 07:07:10;;;;;;;17.17;15.43;;;;;;;5.93;42.08;101682.44;5089801;28;20496;-76
2022/01/21 07:09:37;;;;;;;11.30;8.77;;;;;;;5.93;42.01;101665.81;5090543;28;20459;-76
2022/01/21 07:12:05;;;;;;;10.35;8.18;;;;;;;5.84;42.30;101667.13;5090856;28;20408;-76
2022/01/21 07:14:32;;;;;;;9.93;8.13;;;;;;;5.93;42.07;101663.19;5089153;28;21841;-75
2022/01/21 07:16:59;;;;;;;8.45;6.78;;;;;;;5.81;42.43;101664.63;5089512;28;20985;-76
2022/01/21 07:19:26;;;;;;;14.50;8.20;;;;;;;6.00;42.44;101670.75;5090623;28;20428;-76
2022/01/21 07:21:54;;;;;;;10.45;7.82;;;;;;;6.01;42.35;101674.22;5090624;28;20437;-76
2022/01/21 07:24:22;;;;;;;11.07;7.82;;;;;;;6.17;41.93;101690.97;5090187;28;20503;-76
2022/01/21 07:26:50;;;;;;;9.20;6.85;;;;;;;6.12;42.24;101686.84;5090142;28;20508;-76
2022/01/21 07:29:17;;;;;;;7.88;5.60;;;;;;;6.07;42.26;101678.34;5088466;28;20585;-77
2022/01/21 07:31:44;;;;;;;8.00;5.40;;;;;;;6.20;42.07;101677.69;5089092;28;20792;-76
2022/01/21 07:34:11;;;;;;;9.52;6.38;;;;;;;6.25;41.94;101685.34;5089998;28;20484;-76
2022/01/21 07:36:38;;;;;;;8.65;6.57;;;;;;;6.22;41.93;101690.75;5090330;28;20412;-74
2022/01/21 07:39:06;;;;;;;9.48;7.63;;;;;;;6.35;41.54;101698.91;5089960;28;20934;-74
2022/01/21 07:41:35;;;;;;;11.98;8.85;;;;;;;6.50;41.23;101706.03;5090388;28;20462;-75
2022/01/21 07:44:02;;;;;;;13.02;7.60;;;;;;;6.71;40.75;101711.13;5089583;28;20511;-75
2022/01/21 07:46:29;;;;;;;10.85;7.60;;;;;;;6.85;40.16;101710.44;5090173;28;20475;-74
2022/01/21 07:48:57;;;;;;;9.97;7.23;;;;;;;7.04;39.71;101703.31;5088722;28;20518;-74
2022/01/21 07:51:24;;;;;;;10.38;7.70;;;;;;;7.23;39.03;101703.19;5088965;28;20413;-74
2022/01/21 07:53:51;;;;;;;14.27;9.77;;;;;;;7.25;38.86;101709.22;5089300;28;20444;-75
2022/01/21 07:56:19;;;;;;;11.07;7.97;;;;;;;7.54;38.32;101709.44;5089968;28;20413;-75
2022/01/21 07:58:48;;;;;;;12.40;7.63;;;;;;;7.43;38.26;101710.88;5089484;28;20436;-76
2022/01/21 08:01:15;;;;;;;8.93;6.50;;;;;;;7.42;38.21;101719.72;5089456;28;20953;-75
2022/01/21 08:03:42;;;;;;;12.23;6.70;;;;;;;7.29;38.37;101726.56;5089631;28;20965;-76
2022/01/21 08:06:09;;;;;;;12.43;6.78;;;;;;;7.29;38.30;101723.09;5089604;28;20889;-76
2022/01/21 08:08:36;;;;;;;10.18;6.95;;;;;;;7.36;38.26;101730.59;5088858;28;20428;-75
2022/01/21 08:11:04;;;;;;;10.57;7.13;;;;;;;7.49;38.04;101738.69;5089653;28;20512;-75
2022/01/21 08:13:31;;;;;;;9.80;7.10;;;;;;;7.70;37.48;101730.56;5088530;28;20441;-76
2022/01/21 08:16:00;;;;;;;8.30;6.45;;;;;;;7.95;37.14;101738.00;5089487;28;20428;-75
2022/01/21 08:18:28;;;;;;;12.88;8.13;;;;;;;8.26;36.85;101741.53;5087215;28;20409;-74
2022/01/21 08:20:55;;;;;;;11.32;8.05;;;;;;;8.42;36.66;101742.41;5089193;28;20416;-74
2022/01/21 08:23:23;;;;;;;10.87;6.60;;;;;;;8.70;36.20;101754.00;5089349;28;20424;-75
2022/01/21 08:25:51;;;;;;;13.17;8.17;;;;;;;8.86;35.82;101765.41;5089264;28;21009;-75
2022/01/21 08:28:18;;;;;;;11.73;7.65;;;;;;;8.87;35.71;101758.31;5089466;28;20433;-75
2022/01/21 08:30:45;;;;;;;13.23;8.43;;;;;;;9.10;35.02;101767.50;5089531;28;20452;-76
2022/01/21 08:33:14;;;;;;;10.75;7.80;;;;;;;8.95;35.35;101777.22;5089178;28;20409;-76
2022/01/21 08:35:41;;;;;;;12.57;8.57;;;;;;;8.87;35.67;101776.81;5089224;28;20495;-76
2022/01/21 08:38:08;;;;;;;13.43;9.18;;;;;;;8.86;35.41;101781.25;5088921;28;20405;-77
2022/01/21 08:40:35;;;;;;;13.15;9.45;;;;;;;9.12;34.69;101778.84;5089113;28;20421;-75
2022/01/21 08:43:03;;;;;;;13.35;8.10;;;;;;;8.85;34.94;101771.59;5088308;28;20413;-74
2022/01/21 08:45:30;;;;;;;14.55;9.25;;;;;;;9.22;34.26;101783.50;5089887;28;20496;-74
2022/01/21 08:47:58;;;;;;;12.13;8.18;;;;;;;9.06;34.55;101777.41;5089686;28;20417;-74
2022/01/21 08:50:28;;;;;;;12.27;7.93;;;;;;;8.97;34.61;101778.81;5088401;28;20409;-74
2022/01/21 08:53:06;;;;;;;13.80;8.82;;;;;;;9.20;34.17;101782.75;5088319;28;20417;-74
2022/01/21 08:55:34;;;;;;;15.05;8.10;;;;;;;9.29;33.76;101783.97;5089045;28;20461;-74
2022/01/21 08:58:01;;;;;;;12.90;8.68;;;;;;;9.07;33.46;101780.91;5088953;28;20417;-73
2022/01/21 09:00:28;;;;;;;12.48;8.02;;;;;;;9.26;33.04;101788.59;5089324;28;20517;-74
2022/01/21 09:02:55;;;;;;;10.80;8.18;;;;;;;9.13;33.27;101781.41;5087431;28;20500;-74
2022/01/21 09:05:22;;;;;;;13.50;8.70;;;;;;;9.36;32.82;101789.75;5089123;28;20487;-75
2022/01/21 09:07:51;;;;;;;11.10;7.47;;;;;;;9.51;32.33;101777.38;5089246;28;20413;-77
2022/01/21 09:10:18;;;;;;;12.63;7.47;;;;;;;9.68;32.06;101781.63;5088871;28;20967;-75
2022/01/21 09:12:45;;;;;;;12.73;7.28;;;;;;;9.37;31.94;101783.53;5088193;28;20827;-76
2022/01/21 09:15:12;;;;;;;12.63;6.32;;;;;;;8.98;31.99;101772.59;5089062;28;20777;-76
2022/01/21 09:17:39;;;;;;;10.45;6.32;;;;;;;8.78;32.21;101781.69;5088269;28;20439;-75
2022/01/21 09:20:08;;;;;;;12.35;7.00;;;;;;;8.99;32.35;101778.72;5089136;28;20723;-75
2022/01/21 09:22:35;;;;;;;15.05;8.27;;;;;;;9.20;32.21;101787.16;5089573;28;20492;-76
2022/01/21 09:25:04;;;;;;;14.25;9.18;;;;;;;9.82;31.27;101794.84;5089222;28;20424;-76
2022/01/21 09:27:31;;;;;;;16.98;10.30;;;;;;;10.85;29.93;101785.59;5089062;28;20444;-75
2022/01/21 09:29:59;;;;;;;12.90;8.00;;;;;;;9.79;30.68;101785.31;5087864;28;20429;-75
2022/01/21 09:32:26;;;;;;;11.52;7.63;;;;;;;9.85;30.46;101784.06;5088938;28;20413;-75
2022/01/21 09:34:52;;;;;;;13.43;7.53;;;;;;;10.56;29.20;101783.09;5088848;28;20504;-75
2022/01/21 09:37:20;;;;;;;18.65;11.35;;;;;;;10.90;28.47;101772.88;5092545;28;20405;-75
2022/01/21 09:39:47;;;;;;;15.17;8.63;;;;;;;11.03;28.37;101783.53;5092665;28;20504;-75
2022/01/21 09:42:16;;;;;;;32.15;18.17;;;;;;;11.16;28.25;101763.16;5092413;28;20445;-74
2022/01/21 09:44:45;;;;;;;25.88;14.52;;;;;;;11.20;28.25;101766.44;5091252;28;20405;-75
2022/01/21 09:47:16;;;;;;;24.67;13.80;;;;;;;10.79;28.61;101752.41;5093339;28;20436;-76
2022/01/21 09:49:45;;;;;;;9.13;5.85;;;;;;;10.72;28.47;101759.03;5092063;28;20437;-75
2022/01/21 09:52:16;;;;;;;8.98;5.88;;;;;;;11.12;27.83;101758.16;5091313;28;20413;-75
2022/01/21 09:54:47;;;;;;;23.35;13.77;;;;;;;11.89;27.56;101744.84;5092137;28;20505;-75
2022/01/21 09:57:20;;;;;;;35.08;19.90;;;;;;;11.57;27.70;101751.44;5091104;28;20409;-74
2022/01/21 09:59:47;;;;;;;27.52;15.90;;;;;;;11.64;27.67;101741.28;5092358;28;20504;-74
2022/01/21 10:02:17;;;;;;;24.27;15.63;;;;;;;11.93;27.03;101743.69;5092048;28;20993;-74
2022/01/21 10:04:47;;;;;;;16.58;11.27;;;;;;;12.83;26.00;101741.41;5091999;28;20448;-74
2022/01/21 10:07:16;;;;;;;42.28;29.73;;;;;;;13.09;25.73;101735.94;5092037;28;20865;-75
2022/01/21 10:09:44;;;;;;;9.77;5.57;;;;;;;12.95;25.50;101726.34;5092118;28;20530;-73
2022/01/21 10:12:12;;;;;;;11.65;6.90;;;;;;;12.32;26.46;101720.47;5092023;28;20413;-72
2022/01/21 10:14:42;;;;;;;24.07;21.43;;;;;;;12.77;26.04;101716.16;5092022;28;20504;-75
2022/01/21 10:17:10;;;;;;;20.50;18.50;;;;;;;14.92;24.08;101729.16;5092020;28;20405;-75
2022/01/21 10:19:39;;;;;;;12.30;10.88;;;;;;;16.96;21.78;101726.16;5091834;28;20413;-76
2022/01/21 10:22:11;;;;;;;10.70;8.20;;;;;;;17.25;21.04;101725.22;5092093;28;20414;-74
2022/01/21 10:24:51;;;;;;;10.18;5.47;;;;;;;15.23;23.11;101727.38;5091589;28;20417;-75
2022/01/21 10:27:24;;;;;;;12.13;8.85;;;;;;;15.76;22.31;101724.53;5091811;28;20493;-76
2022/01/21 10:29:53;;;;;;;11.60;6.95;;;;;;;16.08;22.06;101720.81;5090683;28;20457;-76
2022/01/21 10:32:33;;;;;;;11.85;5.75;;;;;;;16.15;21.76;101719.25;5089916;28;20523;-76
2022/01/21 10:35:01;;;;;;;10.00;8.15;;;;;;;17.31;20.90;101711.25;5091614;28;20441;-75
2022/01/21 10:37:32;;;;;;;8.35;5.65;;;;;;;16.23;21.56;101714.03;5091567;28;20417;-77
2022/01/21 10:40:01;;;;;;;13.27;9.23;;;;;;;16.41;21.65;101716.03;5091565;28;20413;-76
2022/01/21 10:42:29;;;;;;;13.97;7.93;;;;;;;16.21;21.97;101709.84;5091490;28;20486;-75
2022/01/21 10:44:58;;;;;;;10.50;6.90;;;;;;;16.28;21.73;101704.75;5091129;28;20591;-75
2022/01/21 10:47:27;;;;;;;10.70;6.33;;;;;;;17.74;20.59;101686.50;5090840;28;20936;-75
2022/01/21 10:50:05;;;;;;;8.55;6.78;;;;;;;17.74;20.24;101686.50;5091112;28;20946;-75
2022/01/21 10:52:34;;;;;;;12.45;6.55;;;;;;;17.84;19.64;101686.44;5091254;28;20457;-75
2022/01/21 10:55:01;;;;;;;13.63;8.35;;;;;;;16.55;20.83;101678.16;5091212;28;20409;-75
2022/01/21 10:57:30;;;;;;;6.68;4.63;;;;;;;16.51;20.77;101675.91;5091038;28;20958;-76
2022/01/21 11:00:02;;;;;;;11.33;7.77;;;;;;;19.06;18.64;101668.84;5091308;28;20521;-75
2022/01/21 11:02:31;;;;;;;11.18;8.05;;;;;;;17.59;19.44;101663.88;5090784;28;20458;-74
2022/01/21 11:05:01;;;;;;;14.27;8.00;;;;;;;17.55;19.82;101662.50;5091106;28;20410;-74
2022/01/21 11:07:51;;;;;;;14.32;7.72;;;;;;;19.64;17.81;101659.19;5090841;28;20447;-74
2022/01/21 11:10:43;;;;;;;9.65;6.72;;;;;;;19.98;18.10;101649.22;5090519;28;20421;-75
2022/01/21 11:13:28;;;;;;;15.60;9.43;;;;;;;18.04;18.95;101649.63;5090402;28;20832;-75
2022/01/21 11:15:59;;;;;;;8.68;7.20;;;;;;;15.62;20.88;101647.41;5090565;28;20444;-75
2022/01/21 11:18:29;;;;;;;8.90;5.93;;;;;;;14.86;22.18;101653.16;5090555;28;20401;-76
2022/01/21 11:21:05;;;;;;;14.98;12.60;;;;;;;13.98;23.29;101663.16;5089766;28;20421;-76
2022/01/21 11:23:33;;;;;;;14.85;10.63;;;;;;;12.71;26.76;101670.56;5090775;28;20478;-76
2022/01/21 11:26:03;;;;;;;19.85;12.93;;;;;;;12.70;28.24;101667.06;5090992;28;20417;-75
2022/01/21 11:28:39;;;;;;;16.58;10.52;;;;;;;13.01;27.92;101662.88;5090378;28;20497;-75
2022/01/21 11:31:09;;;;;;;17.63;8.70;;;;;;;12.58;28.57;101666.19;5089260;28;20409;-74
2022/01/21 11:33:37;;;;;;;19.58;11.20;;;;;;;12.53;28.96;101665.72;5089821;28;20428;-75
2022/01/21 11:36:06;;;;;;;13.30;7.82;;;;;;;12.20;29.50;101661.09;5090232;28;20440;-74
2022/01/21 11:38:37;;;;;;;15.45;8.60;;;;;;;11.93;29.65;101651.56;5090562;28;20467;-74
2022/01/21 11:41:06;;;;;;;15.83;8.60;;;;;;;11.27;30.15;101658.94;5090168;28;20449;-75
2022/01/21 11:43:34;;;;;;;12.45;6.60;;;;;;;10.71;30.66;101656.66;5089415;28;20440;-75
2022/01/21 11:48:51;;;;;;;16.27;10.77;;;;;;;10.14;31.74;101673.66;5088263;28;20409;-74
2022/01/21 11:51:21;;;;;;;16.63;10.37;;;;;;;9.91;32.06;101661.06;5089845;28;20408;-74
2022/01/21 11:53:51;;;;;;;15.18;9.40;;;;;;;10.14;31.30;101660.44;5089996;28;20421;-75
2022/01/21 11:56:42;;;;;;;28.85;19.83;;;;;;;9.56;32.01;101657.09;5089932;28;20993;-75
2022/01/21 11:59:12;;;;;;;32.58;15.32;;;;;;;9.29;32.52;101656.22;5088937;28;20466;-74
2022/01/21 12:01:46;;;;;;;47.53;17.10;;;;;;;9.01;32.72;101655.25;5089843;28;20921;-74
2022/01/21 12:04:16;;;;;;;39.17;16.70;;;;;;;9.12;32.65;101652.78;5090053;28;20439;-75
2022/01/21 12:06:43;;;;;;;41.28;23.25;;;;;;;9.14;32.66;101640.31;5089749;28;20433;-75
2022/01/21 12:09:13;;;;;;;62.28;34.28;;;;;;;9.34;32.56;101636.44;5089726;28;21023;-74
2022/01/21 12:11:40;;;;;;;33.28;19.50;;;;;;;8.95;32.71;101640.63;5089533;28;20995;-75
2022/01/21 12:14:43;;;;;;;25.52;13.98;;;;;;;9.10;32.08;101638.81;5089404;28;20488;-73
2022/01/21 12:17:19;;;;;;;16.20;11.10;;;;;;;9.10;30.74;101637.97;5088476;28;20409;-73